sensor_id;sensor_type;location;lat;lon;timestamp;temperature;humidity
28773;DHT22;15925;51.222;5.678;2022-08-19T00:02:24;20.50;99.90
28773;DHT22;15925;51.222;5.678;2022-08-19T00:04:50;20.40;99.90
28773;DHT22;15925;51.222;5.678;2022-08-19T00:07:18;20.40;99.90
28773;DHT22;15925;51.222;5.678;2022-08-19T00:09:44;20.30;99.90
28773;DHT22;15925;51.222;5.678;2022-08-19T00:12:10;20.30;99.90
28773;DHT22;15925;51.222;5.678;2022-08-19T00:14:36;20.30;99.90
28773;DHT22;15925;51.222;5.678;2022-08-19T00:17:04;20.20;99.90
28773;DHT22;15925;51.222;5.678;2022-08-19T00:19:30;20.20;99.90
28773;DHT22;15925;51.222;5.678;2022-08-19T00:21:55;20.20;99.90
28773;DHT22;15925;51.222;5.678;2022-08-19T00:24:21;20.10;99.90
28773;DHT22;15925;51.222;5.678;2022-08-19T00:26:48;20.10;99.90
28773;DHT22;15925;51.222;5.678;2022-08-19T00:29:16;20.10;99.90
28773;DHT22;15925;51.222;5.678;2022-08-19T00:31:43;20.00;99.90
28773;DHT22;15925;51.222;5.678;2022-08-19T00:34:09;20.00;99.90
28773;DHT22;15925;51.222;5.678;2022-08-19T00:36:35;20.00;99.90
28773;DHT22;15925;51.222;5.678;2022-08-19T00:39:02;19.90;99.90
28773;DHT22;15925;51.222;5.678;2022-08-19T00:41:28;19.90;99.90
28773;DHT22;15925;51.222;5.678;2022-08-19T00:44:36;19.90;99.90
28773;DHT22;15925;51.222;5.678;2022-08-19T00:46:44;19.80;99.90
28773;DHT22;15925;51.222;5.678;2022-08-19T00:51:50;19.80;99.90
28773;DHT22;15925;51.222;5.678;2022-08-19T00:54:16;19.80;99.90
28773;DHT22;15925;51.222;5.678;2022-08-19T00:56:43;19.80;99.90
28773;DHT22;15925;51.222;5.678;2022-08-19T00:59:09;19.80;99.90
28773;DHT22;15925;51.222;5.678;2022-08-19T01:01:38;19.70;99.90
28773;DHT22;15925;51.222;5.678;2022-08-19T01:04:06;19.70;99.90
28773;DHT22;15925;51.222;5.678;2022-08-19T01:06:32;19.70;99.90
28773;DHT22;15925;51.222;5.678;2022-08-19T01:08:59;19.60;99.90
28773;DHT22;15925;51.222;5.678;2022-08-19T01:11:26;19.60;99.90
28773;DHT22;15925;51.222;5.678;2022-08-19T01:13:52;19.50;99.90
28773;DHT22;15925;51.222;5.678;2022-08-19T01:16:18;19.50;99.90
28773;DHT22;15925;51.222;5.678;2022-08-19T01:18:45;19.40;99.90
28773;DHT22;15925;51.222;5.678;2022-08-19T01:21:13;19.40;99.90
28773;DHT22;15925;51.222;5.678;2022-08-19T01:23:42;19.30;99.90
28773;DHT22;15925;51.222;5.678;2022-08-19T01:26:09;19.20;99.90
28773;DHT22;15925;51.222;5.678;2022-08-19T01:28:35;19.20;99.90
28773;DHT22;15925;51.222;5.678;2022-08-19T01:31:02;19.10;99.90
28773;DHT22;15925;51.222;5.678;2022-08-19T01:33:27;19.00;99.90
28773;DHT22;15925;51.222;5.678;2022-08-19T01:35:54;19.00;99.90
28773;DHT22;15925;51.222;5.678;2022-08-19T01:38:28;19.00;99.90
28773;DHT22;15925;51.222;5.678;2022-08-19T01:40:55;19.00;99.90
28773;DHT22;15925;51.222;5.678;2022-08-19T01:43:21;18.90;99.90
28773;DHT22;15925;51.222;5.678;2022-08-19T01:45:46;18.90;99.90
28773;DHT22;15925;51.222;5.678;2022-08-19T01:48:12;18.70;99.90
28773;DHT22;15925;51.222;5.678;2022-08-19T01:50:38;18.80;99.90
28773;DHT22;15925;51.222;5.678;2022-08-19T01:53:05;18.80;99.90
28773;DHT22;15925;51.222;5.678;2022-08-19T01:55:31;18.80;99.90
28773;DHT22;15925;51.222;5.678;2022-08-19T01:57:58;18.80;99.90
28773;DHT22;15925;51.222;5.678;2022-08-19T02:03:53;18.80;99.90
28773;DHT22;15925;51.222;5.678;2022-08-19T02:06:19;18.80;99.90
28773;DHT22;15925;51.222;5.678;2022-08-19T02:08:45;18.70;99.90
28773;DHT22;15925;51.222;5.678;2022-08-19T02:11:18;18.70;99.90
28773;DHT22;15925;51.222;5.678;2022-08-19T02:13:44;18.60;99.90
28773;DHT22;15925;51.222;5.678;2022-08-19T02:16:10;18.70;99.90
28773;DHT22;15925;51.222;5.678;2022-08-19T02:18:35;18.60;99.90
28773;DHT22;15925;51.222;5.678;2022-08-19T02:21:01;18.50;99.90
28773;DHT22;15925;51.222;5.678;2022-08-19T02:23:27;18.50;99.90
28773;DHT22;15925;51.222;5.678;2022-08-19T02:25:53;18.50;99.90
28773;DHT22;15925;51.222;5.678;2022-08-19T02:28:18;18.50;99.90
28773;DHT22;15925;51.222;5.678;2022-08-19T02:30:44;18.40;99.90
28773;DHT22;15925;51.222;5.678;2022-08-19T02:33:10;18.40;99.90
28773;DHT22;15925;51.222;5.678;2022-08-19T02:35:36;18.40;99.90
28773;DHT22;15925;51.222;5.678;2022-08-19T02:38:02;18.40;99.90
28773;DHT22;15925;51.222;5.678;2022-08-19T02:40:49;18.30;99.90
28773;DHT22;15925;51.222;5.678;2022-08-19T02:43:17;18.30;99.90
28773;DHT22;15925;51.222;5.678;2022-08-19T02:45:42;18.30;99.90
28773;DHT22;15925;51.222;5.678;2022-08-19T02:48:08;18.30;99.90
28773;DHT22;15925;51.222;5.678;2022-08-19T02:50:37;18.30;99.90
28773;DHT22;15925;51.222;5.678;2022-08-19T02:53:03;18.30;99.90
28773;DHT22;15925;51.222;5.678;2022-08-19T02:55:29;18.20;99.90
28773;DHT22;15925;51.222;5.678;2022-08-19T02:57:54;18.20;99.90
28773;DHT22;15925;51.222;5.678;2022-08-19T03:00:22;18.20;99.90
28773;DHT22;15925;51.222;5.678;2022-08-19T03:02:49;18.20;99.90
28773;DHT22;15925;51.222;5.678;2022-08-19T03:05:15;18.20;99.90
28773;DHT22;15925;51.222;5.678;2022-08-19T03:07:41;18.20;99.90
28773;DHT22;15925;51.222;5.678;2022-08-19T03:10:07;18.20;99.90
28773;DHT22;15925;51.222;5.678;2022-08-19T03:12:35;18.20;99.90
28773;DHT22;15925;51.222;5.678;2022-08-19T03:15:00;18.20;99.90
28773;DHT22;15925;51.222;5.678;2022-08-19T03:17:26;18.20;99.90
28773;DHT22;15925;51.222;5.678;2022-08-19T03:19:52;18.20;99.90
28773;DHT22;15925;51.222;5.678;2022-08-19T03:22:17;18.20;99.90
28773;DHT22;15925;51.222;5.678;2022-08-19T03:24:43;18.20;99.90
28773;DHT22;15925;51.222;5.678;2022-08-19T03:27:09;18.10;99.90
28773;DHT22;15925;51.222;5.678;2022-08-19T03:29:36;17.90;99.90
28773;DHT22;15925;51.222;5.678;2022-08-19T03:32:03;18.00;99.90
28773;DHT22;15925;51.222;5.678;2022-08-19T03:34:30;18.10;99.90
28773;DHT22;15925;51.222;5.678;2022-08-19T03:36:57;18.10;99.90
28773;DHT22;15925;51.222;5.678;2022-08-19T03:39:24;18.10;99.90
28773;DHT22;15925;51.222;5.678;2022-08-19T03:41:51;18.10;99.90
28773;DHT22;15925;51.222;5.678;2022-08-19T03:44:18;18.10;99.90
28773;DHT22;15925;51.222;5.678;2022-08-19T03:46:47;18.10;99.90
28773;DHT22;15925;51.222;5.678;2022-08-19T03:49:13;18.00;99.90
28773;DHT22;15925;51.222;5.678;2022-08-19T03:51:38;18.00;99.90
28773;DHT22;15925;51.222;5.678;2022-08-19T03:54:07;17.90;99.90
28773;DHT22;15925;51.222;5.678;2022-08-19T03:56:34;17.90;99.90
28773;DHT22;15925;51.222;5.678;2022-08-19T03:59:00;17.90;99.90
28773;DHT22;15925;51.222;5.678;2022-08-19T04:01:26;17.90;99.90
28773;DHT22;15925;51.222;5.678;2022-08-19T04:03:53;17.80;99.90
28773;DHT22;15925;51.222;5.678;2022-08-19T04:06:20;17.80;99.90
28773;DHT22;15925;51.222;5.678;2022-08-19T04:08:47;17.80;99.90
28773;DHT22;15925;51.222;5.678;2022-08-19T04:11:14;17.80;99.90
28773;DHT22;15925;51.222;5.678;2022-08-19T04:13:40;17.80;99.90
28773;DHT22;15925;51.222;5.678;2022-08-19T04:16:06;17.70;99.90
28773;DHT22;15925;51.222;5.678;2022-08-19T04:18:35;17.70;99.90
28773;DHT22;15925;51.222;5.678;2022-08-19T04:21:01;17.70;99.90
28773;DHT22;15925;51.222;5.678;2022-08-19T04:23:27;17.70;99.90
28773;DHT22;15925;51.222;5.678;2022-08-19T04:25:53;17.70;99.90
28773;DHT22;15925;51.222;5.678;2022-08-19T04:28:19;17.70;99.90
28773;DHT22;15925;51.222;5.678;2022-08-19T04:30:46;17.70;99.90
28773;DHT22;15925;51.222;5.678;2022-08-19T04:33:16;17.70;99.90
28773;DHT22;15925;51.222;5.678;2022-08-19T04:35:43;17.70;99.90
28773;DHT22;15925;51.222;5.678;2022-08-19T04:38:10;17.80;99.90
28773;DHT22;15925;51.222;5.678;2022-08-19T04:40:39;17.80;99.90
28773;DHT22;15925;51.222;5.678;2022-08-19T04:43:24;17.70;99.90
28773;DHT22;15925;51.222;5.678;2022-08-19T04:45:50;17.70;99.90
28773;DHT22;15925;51.222;5.678;2022-08-19T04:48:17;17.70;99.90
28773;DHT22;15925;51.222;5.678;2022-08-19T04:50:56;17.70;99.90
28773;DHT22;15925;51.222;5.678;2022-08-19T04:53:29;17.70;99.90
28773;DHT22;15925;51.222;5.678;2022-08-19T04:55:56;17.70;99.90
28773;DHT22;15925;51.222;5.678;2022-08-19T04:58:22;17.70;99.90
28773;DHT22;15925;51.222;5.678;2022-08-19T05:00:48;17.70;99.90
28773;DHT22;15925;51.222;5.678;2022-08-19T05:03:14;17.60;99.90
28773;DHT22;15925;51.222;5.678;2022-08-19T05:05:43;17.30;99.90
28773;DHT22;15925;51.222;5.678;2022-08-19T05:08:09;17.50;99.90
28773;DHT22;15925;51.222;5.678;2022-08-19T05:10:35;17.50;99.90
28773;DHT22;15925;51.222;5.678;2022-08-19T05:13:01;17.50;99.90
28773;DHT22;15925;51.222;5.678;2022-08-19T05:15:27;17.50;99.90
28773;DHT22;15925;51.222;5.678;2022-08-19T05:17:52;17.50;99.90
28773;DHT22;15925;51.222;5.678;2022-08-19T05:20:37;17.60;99.90
28773;DHT22;15925;51.222;5.678;2022-08-19T05:23:21;17.40;99.90
28773;DHT22;15925;51.222;5.678;2022-08-19T05:25:47;17.50;99.90
28773;DHT22;15925;51.222;5.678;2022-08-19T05:28:13;17.50;99.90
28773;DHT22;15925;51.222;5.678;2022-08-19T05:30:39;17.50;99.90
28773;DHT22;15925;51.222;5.678;2022-08-19T05:33:07;17.60;99.90
28773;DHT22;15925;51.222;5.678;2022-08-19T05:35:36;17.60;99.90
28773;DHT22;15925;51.222;5.678;2022-08-19T05:38:02;17.20;99.90
28773;DHT22;15925;51.222;5.678;2022-08-19T05:40:28;17.00;99.90
28773;DHT22;15925;51.222;5.678;2022-08-19T05:42:54;17.00;99.90
28773;DHT22;15925;51.222;5.678;2022-08-19T05:45:19;17.00;99.90
28773;DHT22;15925;51.222;5.678;2022-08-19T05:47:46;16.90;99.90
28773;DHT22;15925;51.222;5.678;2022-08-19T05:50:12;16.90;99.90
28773;DHT22;15925;51.222;5.678;2022-08-19T05:52:38;16.80;99.90
28773;DHT22;15925;51.222;5.678;2022-08-19T05:55:03;16.80;99.90
28773;DHT22;15925;51.222;5.678;2022-08-19T05:57:30;16.80;99.90
28773;DHT22;15925;51.222;5.678;2022-08-19T05:59:55;16.90;99.90
28773;DHT22;15925;51.222;5.678;2022-08-19T06:02:22;16.90;99.90
28773;DHT22;15925;51.222;5.678;2022-08-19T06:04:48;16.90;99.90
28773;DHT22;15925;51.222;5.678;2022-08-19T06:07:14;17.00;99.90
28773;DHT22;15925;51.222;5.678;2022-08-19T06:09:40;17.00;99.90
28773;DHT22;15925;51.222;5.678;2022-08-19T06:12:06;17.00;99.90
28773;DHT22;15925;51.222;5.678;2022-08-19T06:14:33;17.10;99.90
28773;DHT22;15925;51.222;5.678;2022-08-19T06:17:00;17.10;99.90
28773;DHT22;15925;51.222;5.678;2022-08-19T06:19:27;17.10;99.90
28773;DHT22;15925;51.222;5.678;2022-08-19T06:21:55;17.20;99.90
28773;DHT22;15925;51.222;5.678;2022-08-19T06:24:22;17.20;99.90
28773;DHT22;15925;51.222;5.678;2022-08-19T06:26:49;17.20;99.90
28773;DHT22;15925;51.222;5.678;2022-08-19T06:29:17;17.30;99.90
28773;DHT22;15925;51.222;5.678;2022-08-19T06:31:44;17.30;99.90
28773;DHT22;15925;51.222;5.678;2022-08-19T06:34:10;17.40;99.90
28773;DHT22;15925;51.222;5.678;2022-08-19T06:36:37;17.40;99.90
28773;DHT22;15925;51.222;5.678;2022-08-19T06:39:04;17.40;99.90
28773;DHT22;15925;51.222;5.678;2022-08-19T06:41:31;17.40;99.90
28773;DHT22;15925;51.222;5.678;2022-08-19T06:43:59;17.40;99.90
28773;DHT22;15925;51.222;5.678;2022-08-19T06:46:25;17.40;99.90
28773;DHT22;15925;51.222;5.678;2022-08-19T06:48:51;17.50;99.90
28773;DHT22;15925;51.222;5.678;2022-08-19T06:51:18;17.50;99.90
28773;DHT22;15925;51.222;5.678;2022-08-19T06:53:47;17.60;99.90
28773;DHT22;15925;51.222;5.678;2022-08-19T06:56:14;17.70;99.90
28773;DHT22;15925;51.222;5.678;2022-08-19T06:58:39;17.80;99.90
28773;DHT22;15925;51.222;5.678;2022-08-19T07:01:05;17.90;99.90
28773;DHT22;15925;51.222;5.678;2022-08-19T07:03:32;17.90;99.90
28773;DHT22;15925;51.222;5.678;2022-08-19T07:08:50;18.00;99.90
28773;DHT22;15925;51.222;5.678;2022-08-19T07:11:17;18.10;99.90
28773;DHT22;15925;51.222;5.678;2022-08-19T07:13:44;18.20;99.90
28773;DHT22;15925;51.222;5.678;2022-08-19T07:16:15;18.20;99.90
28773;DHT22;15925;51.222;5.678;2022-08-19T07:18:41;18.30;99.90
28773;DHT22;15925;51.222;5.678;2022-08-19T07:21:14;18.40;99.90
28773;DHT22;15925;51.222;5.678;2022-08-19T07:23:41;18.40;99.90
28773;DHT22;15925;51.222;5.678;2022-08-19T07:26:18;18.50;99.90
28773;DHT22;15925;51.222;5.678;2022-08-19T07:28:45;18.60;99.90
28773;DHT22;15925;51.222;5.678;2022-08-19T07:31:11;18.60;99.90
28773;DHT22;15925;51.222;5.678;2022-08-19T07:33:39;18.70;99.90
28773;DHT22;15925;51.222;5.678;2022-08-19T07:36:05;18.70;99.90
28773;DHT22;15925;51.222;5.678;2022-08-19T07:38:31;18.80;99.90
28773;DHT22;15925;51.222;5.678;2022-08-19T07:40:57;18.90;99.90
28773;DHT22;15925;51.222;5.678;2022-08-19T07:43:23;19.00;99.90
28773;DHT22;15925;51.222;5.678;2022-08-19T07:45:51;19.00;99.90
28773;DHT22;15925;51.222;5.678;2022-08-19T07:48:18;19.00;99.90
28773;DHT22;15925;51.222;5.678;2022-08-19T07:50:44;19.00;99.90
28773;DHT22;15925;51.222;5.678;2022-08-19T07:53:09;19.10;99.90
28773;DHT22;15925;51.222;5.678;2022-08-19T07:55:37;19.20;99.90
28773;DHT22;15925;51.222;5.678;2022-08-19T07:58:02;19.30;99.90
28773;DHT22;15925;51.222;5.678;2022-08-19T08:00:30;19.30;99.90
28773;DHT22;15925;51.222;5.678;2022-08-19T08:02:55;19.40;99.90
28773;DHT22;15925;51.222;5.678;2022-08-19T08:05:22;19.50;99.90
28773;DHT22;15925;51.222;5.678;2022-08-19T08:08:06;19.70;99.90
28773;DHT22;15925;51.222;5.678;2022-08-19T08:10:50;19.70;99.90
28773;DHT22;15925;51.222;5.678;2022-08-19T08:13:16;19.80;99.90
28773;DHT22;15925;51.222;5.678;2022-08-19T08:15:42;20.00;99.90
28773;DHT22;15925;51.222;5.678;2022-08-19T08:18:10;20.20;99.90
28773;DHT22;15925;51.222;5.678;2022-08-19T08:20:36;20.20;99.90
28773;DHT22;15925;51.222;5.678;2022-08-19T08:23:02;20.30;99.90
28773;DHT22;15925;51.222;5.678;2022-08-19T08:25:46;20.30;99.90
28773;DHT22;15925;51.222;5.678;2022-08-19T08:28:13;20.40;99.90
28773;DHT22;15925;51.222;5.678;2022-08-19T08:30:39;20.50;99.90
28773;DHT22;15925;51.222;5.678;2022-08-19T08:33:07;20.60;99.90
28773;DHT22;15925;51.222;5.678;2022-08-19T08:35:33;20.60;99.90
28773;DHT22;15925;51.222;5.678;2022-08-19T08:37:59;20.60;99.90
28773;DHT22;15925;51.222;5.678;2022-08-19T08:45:27;20.60;99.90
28773;DHT22;15925;51.222;5.678;2022-08-19T08:47:54;20.80;99.90
28773;DHT22;15925;51.222;5.678;2022-08-19T08:50:22;20.90;99.90
28773;DHT22;15925;51.222;5.678;2022-08-19T08:52:50;20.90;99.90
28773;DHT22;15925;51.222;5.678;2022-08-19T08:55:19;21.00;99.90
28773;DHT22;15925;51.222;5.678;2022-08-19T09:00:25;21.20;99.90
28773;DHT22;15925;51.222;5.678;2022-08-19T09:02:52;21.30;99.90
28773;DHT22;15925;51.222;5.678;2022-08-19T09:05:19;21.40;99.90
28773;DHT22;15925;51.222;5.678;2022-08-19T09:10:39;21.60;99.90
28773;DHT22;15925;51.222;5.678;2022-08-19T09:15:44;21.60;99.90
28773;DHT22;15925;51.222;5.678;2022-08-19T09:18:11;21.80;99.90
28773;DHT22;15925;51.222;5.678;2022-08-19T09:20:37;21.90;99.90
28773;DHT22;15925;51.222;5.678;2022-08-19T09:23:03;22.10;99.90
28773;DHT22;15925;51.222;5.678;2022-08-19T09:25:29;22.20;99.90
28773;DHT22;15925;51.222;5.678;2022-08-19T09:27:59;22.20;99.90
28773;DHT22;15925;51.222;5.678;2022-08-19T09:30:29;22.30;99.90
28773;DHT22;15925;51.222;5.678;2022-08-19T09:32:55;22.40;99.90
28773;DHT22;15925;51.222;5.678;2022-08-19T09:35:22;22.50;99.90
28773;DHT22;15925;51.222;5.678;2022-08-19T09:37:48;22.60;99.90
28773;DHT22;15925;51.222;5.678;2022-08-19T09:40:14;22.70;99.90
28773;DHT22;15925;51.222;5.678;2022-08-19T09:42:40;22.70;99.90
28773;DHT22;15925;51.222;5.678;2022-08-19T09:45:09;22.80;99.90
28773;DHT22;15925;51.222;5.678;2022-08-19T09:47:34;22.90;99.90
28773;DHT22;15925;51.222;5.678;2022-08-19T09:50:07;23.00;99.90
28773;DHT22;15925;51.222;5.678;2022-08-19T09:52:33;23.00;99.90
28773;DHT22;15925;51.222;5.678;2022-08-19T09:55:08;23.20;99.90
28773;DHT22;15925;51.222;5.678;2022-08-19T09:57:35;23.30;99.90
28773;DHT22;15925;51.222;5.678;2022-08-19T10:00:01;23.40;99.90
28773;DHT22;15925;51.222;5.678;2022-08-19T10:02:33;23.40;99.90
28773;DHT22;15925;51.222;5.678;2022-08-19T10:04:59;23.40;99.90
28773;DHT22;15925;51.222;5.678;2022-08-19T10:07:43;23.50;99.90
28773;DHT22;15925;51.222;5.678;2022-08-19T10:10:09;23.60;99.90
28773;DHT22;15925;51.222;5.678;2022-08-19T10:12:35;23.70;99.90
28773;DHT22;15925;51.222;5.678;2022-08-19T10:15:00;23.70;99.90
28773;DHT22;15925;51.222;5.678;2022-08-19T10:17:26;23.80;99.90
28773;DHT22;15925;51.222;5.678;2022-08-19T10:19:52;23.40;99.90
28773;DHT22;15925;51.222;5.678;2022-08-19T10:22:18;23.50;99.90
28773;DHT22;15925;51.222;5.678;2022-08-19T10:24:47;23.70;99.90
28773;DHT22;15925;51.222;5.678;2022-08-19T10:27:14;23.60;99.90
28773;DHT22;15925;51.222;5.678;2022-08-19T10:29:40;23.80;99.90
28773;DHT22;15925;51.222;5.678;2022-08-19T10:32:06;23.50;99.90
28773;DHT22;15925;51.222;5.678;2022-08-19T10:34:34;23.70;99.90
28773;DHT22;15925;51.222;5.678;2022-08-19T10:37:02;23.60;99.90
28773;DHT22;15925;51.222;5.678;2022-08-19T10:39:29;23.70;99.90
28773;DHT22;15925;51.222;5.678;2022-08-19T10:41:55;24.00;99.90
28773;DHT22;15925;51.222;5.678;2022-08-19T10:44:22;24.00;99.90
28773;DHT22;15925;51.222;5.678;2022-08-19T10:46:48;24.10;99.90
28773;DHT22;15925;51.222;5.678;2022-08-19T10:49:14;24.30;99.90
28773;DHT22;15925;51.222;5.678;2022-08-19T10:51:40;24.30;99.90
28773;DHT22;15925;51.222;5.678;2022-08-19T10:54:24;24.30;99.90
28773;DHT22;15925;51.222;5.678;2022-08-19T10:57:10;24.30;99.90
28773;DHT22;15925;51.222;5.678;2022-08-19T10:59:36;24.30;99.90
28773;DHT22;15925;51.222;5.678;2022-08-19T11:02:02;24.40;99.90
28773;DHT22;15925;51.222;5.678;2022-08-19T11:04:28;24.50;99.90
28773;DHT22;15925;51.222;5.678;2022-08-19T11:06:55;24.60;99.90
28773;DHT22;15925;51.222;5.678;2022-08-19T11:09:21;24.70;99.90
28773;DHT22;15925;51.222;5.678;2022-08-19T11:11:49;24.80;99.90
28773;DHT22;15925;51.222;5.678;2022-08-19T11:14:16;24.90;99.90
28773;DHT22;15925;51.222;5.678;2022-08-19T11:16:44;24.80;99.90
28773;DHT22;15925;51.222;5.678;2022-08-19T11:19:11;24.70;99.90
28773;DHT22;15925;51.222;5.678;2022-08-19T11:21:38;24.60;99.90
28773;DHT22;15925;51.222;5.678;2022-08-19T11:24:06;24.70;99.90
28773;DHT22;15925;51.222;5.678;2022-08-19T11:26:32;24.90;99.90
28773;DHT22;15925;51.222;5.678;2022-08-19T11:28:59;25.00;99.90
28773;DHT22;15925;51.222;5.678;2022-08-19T11:31:26;24.70;99.90
28773;DHT22;15925;51.222;5.678;2022-08-19T11:33:51;24.80;99.90
28773;DHT22;15925;51.222;5.678;2022-08-19T11:36:20;25.00;99.90
28773;DHT22;15925;51.222;5.678;2022-08-19T11:38:47;25.10;99.90
28773;DHT22;15925;51.222;5.678;2022-08-19T11:41:14;25.20;99.90
28773;DHT22;15925;51.222;5.678;2022-08-19T11:43:40;25.00;99.90
28773;DHT22;15925;51.222;5.678;2022-08-19T11:46:07;25.00;99.90
28773;DHT22;15925;51.222;5.678;2022-08-19T11:48:33;25.20;99.90
28773;DHT22;15925;51.222;5.678;2022-08-19T11:50:59;25.20;99.90
28773;DHT22;15925;51.222;5.678;2022-08-19T11:53:30;25.20;99.90
28773;DHT22;15925;51.222;5.678;2022-08-19T11:55:56;25.40;99.90
28773;DHT22;15925;51.222;5.678;2022-08-19T11:58:22;25.50;99.90
28773;DHT22;15925;51.222;5.678;2022-08-19T12:00:47;25.60;99.90
28773;DHT22;15925;51.222;5.678;2022-08-19T12:03:13;25.60;99.90
28773;DHT22;15925;51.222;5.678;2022-08-19T12:05:39;25.70;99.90
28773;DHT22;15925;51.222;5.678;2022-08-19T12:08:05;25.60;99.90
28773;DHT22;15925;51.222;5.678;2022-08-19T12:10:31;25.50;99.90
28773;DHT22;15925;51.222;5.678;2022-08-19T12:12:57;25.40;99.90
28773;DHT22;15925;51.222;5.678;2022-08-19T12:15:23;25.60;99.90
28773;DHT22;15925;51.222;5.678;2022-08-19T12:17:48;25.40;99.90
28773;DHT22;15925;51.222;5.678;2022-08-19T12:20:14;24.90;99.90
28773;DHT22;15925;51.222;5.678;2022-08-19T12:22:42;24.80;99.90
28773;DHT22;15925;51.222;5.678;2022-08-19T12:25:09;25.10;99.90
28773;DHT22;15925;51.222;5.678;2022-08-19T12:27:35;25.00;99.90
28773;DHT22;15925;51.222;5.678;2022-08-19T12:30:02;25.20;99.90
28773;DHT22;15925;51.222;5.678;2022-08-19T12:32:27;25.20;99.90
28773;DHT22;15925;51.222;5.678;2022-08-19T12:34:53;24.90;99.90
28773;DHT22;15925;51.222;5.678;2022-08-19T12:37:19;25.00;99.90
28773;DHT22;15925;51.222;5.678;2022-08-19T12:39:45;25.00;99.90
28773;DHT22;15925;51.222;5.678;2022-08-19T12:42:12;24.90;99.90
28773;DHT22;15925;51.222;5.678;2022-08-19T12:44:38;25.00;99.90
28773;DHT22;15925;51.222;5.678;2022-08-19T12:47:05;25.20;99.90
28773;DHT22;15925;51.222;5.678;2022-08-19T12:49:31;25.30;99.90
28773;DHT22;15925;51.222;5.678;2022-08-19T12:51:59;25.30;99.90
28773;DHT22;15925;51.222;5.678;2022-08-19T12:54:26;25.40;99.90
28773;DHT22;15925;51.222;5.678;2022-08-19T12:56:51;25.60;99.90
28773;DHT22;15925;51.222;5.678;2022-08-19T12:59:17;25.50;99.90
28773;DHT22;15925;51.222;5.678;2022-08-19T13:01:44;25.20;99.90
28773;DHT22;15925;51.222;5.678;2022-08-19T13:04:09;25.20;99.90
28773;DHT22;15925;51.222;5.678;2022-08-19T13:06:35;25.30;99.90
28773;DHT22;15925;51.222;5.678;2022-08-19T13:09:01;25.20;99.90
28773;DHT22;15925;51.222;5.678;2022-08-19T13:11:27;25.30;99.90
28773;DHT22;15925;51.222;5.678;2022-08-19T13:13:57;25.50;99.90
28773;DHT22;15925;51.222;5.678;2022-08-19T13:16:23;25.60;99.90
28773;DHT22;15925;51.222;5.678;2022-08-19T13:18:49;25.30;99.90
28773;DHT22;15925;51.222;5.678;2022-08-19T13:21:18;25.40;99.90
28773;DHT22;15925;51.222;5.678;2022-08-19T13:23:45;25.60;99.90
28773;DHT22;15925;51.222;5.678;2022-08-19T13:26:11;25.70;99.90
28773;DHT22;15925;51.222;5.678;2022-08-19T13:28:38;25.60;99.90
28773;DHT22;15925;51.222;5.678;2022-08-19T13:31:24;25.50;99.90
28773;DHT22;15925;51.222;5.678;2022-08-19T13:34:08;25.40;99.90
28773;DHT22;15925;51.222;5.678;2022-08-19T13:36:34;25.70;99.90
28773;DHT22;15925;51.222;5.678;2022-08-19T13:39:01;25.80;99.90
28773;DHT22;15925;51.222;5.678;2022-08-19T13:41:26;25.60;99.90
28773;DHT22;15925;51.222;5.678;2022-08-19T13:43:52;25.40;99.90
28773;DHT22;15925;51.222;5.678;2022-08-19T13:46:18;25.60;99.90
28773;DHT22;15925;51.222;5.678;2022-08-19T13:48:45;25.60;99.90
28773;DHT22;15925;51.222;5.678;2022-08-19T13:51:11;25.40;99.90
28773;DHT22;15925;51.222;5.678;2022-08-19T13:53:37;25.30;99.90
28773;DHT22;15925;51.222;5.678;2022-08-19T13:56:06;25.00;99.90
28773;DHT22;15925;51.222;5.678;2022-08-19T13:58:33;25.10;99.90
28773;DHT22;15925;51.222;5.678;2022-08-19T14:00:59;25.20;99.90
28773;DHT22;15925;51.222;5.678;2022-08-19T14:03:25;25.20;99.90
28773;DHT22;15925;51.222;5.678;2022-08-19T14:05:50;25.30;99.90
28773;DHT22;15925;51.222;5.678;2022-08-19T14:08:16;25.00;99.90
28773;DHT22;15925;51.222;5.678;2022-08-19T14:10:42;25.00;99.90
28773;DHT22;15925;51.222;5.678;2022-08-19T14:13:09;25.10;99.90
28773;DHT22;15925;51.222;5.678;2022-08-19T14:15:35;25.00;99.90
28773;DHT22;15925;51.222;5.678;2022-08-19T14:18:02;24.90;99.90
28773;DHT22;15925;51.222;5.678;2022-08-19T14:20:28;24.90;99.90
28773;DHT22;15925;51.222;5.678;2022-08-19T14:22:54;24.90;99.90
28773;DHT22;15925;51.222;5.678;2022-08-19T14:25:22;25.00;99.90
28773;DHT22;15925;51.222;5.678;2022-08-19T14:27:48;25.00;99.90
28773;DHT22;15925;51.222;5.678;2022-08-19T14:30:15;25.10;99.90
28773;DHT22;15925;51.222;5.678;2022-08-19T14:32:41;25.10;99.90
28773;DHT22;15925;51.222;5.678;2022-08-19T14:35:08;25.20;99.90
28773;DHT22;15925;51.222;5.678;2022-08-19T14:37:34;25.30;99.90
28773;DHT22;15925;51.222;5.678;2022-08-19T14:40:01;25.30;99.90
28773;DHT22;15925;51.222;5.678;2022-08-19T14:42:26;25.40;99.90
28773;DHT22;15925;51.222;5.678;2022-08-19T14:44:52;25.20;99.90
28773;DHT22;15925;51.222;5.678;2022-08-19T14:47:18;25.30;99.90
28773;DHT22;15925;51.222;5.678;2022-08-19T14:49:43;25.30;99.90
28773;DHT22;15925;51.222;5.678;2022-08-19T14:52:09;25.30;99.90
28773;DHT22;15925;51.222;5.678;2022-08-19T14:54:35;25.20;99.90
28773;DHT22;15925;51.222;5.678;2022-08-19T14:57:00;25.20;99.90
28773;DHT22;15925;51.222;5.678;2022-08-19T14:59:27;25.20;99.90
28773;DHT22;15925;51.222;5.678;2022-08-19T15:01:53;25.30;99.90
28773;DHT22;15925;51.222;5.678;2022-08-19T15:04:18;25.30;99.90
28773;DHT22;15925;51.222;5.678;2022-08-19T15:06:44;25.20;99.90
28773;DHT22;15925;51.222;5.678;2022-08-19T15:09:10;25.10;99.90
28773;DHT22;15925;51.222;5.678;2022-08-19T15:11:35;25.10;99.90
28773;DHT22;15925;51.222;5.678;2022-08-19T15:14:02;25.20;99.90
28773;DHT22;15925;51.222;5.678;2022-08-19T15:16:28;25.30;99.90
28773;DHT22;15925;51.222;5.678;2022-08-19T15:18:54;25.20;99.90
28773;DHT22;15925;51.222;5.678;2022-08-19T15:21:22;25.30;99.90
28773;DHT22;15925;51.222;5.678;2022-08-19T15:23:48;25.10;99.90
28773;DHT22;15925;51.222;5.678;2022-08-19T15:26:15;25.10;99.90
28773;DHT22;15925;51.222;5.678;2022-08-19T15:28:41;25.10;99.90
28773;DHT22;15925;51.222;5.678;2022-08-19T15:31:07;24.90;99.90
28773;DHT22;15925;51.222;5.678;2022-08-19T15:33:33;24.80;99.90
28773;DHT22;15925;51.222;5.678;2022-08-19T15:36:02;24.80;99.90
28773;DHT22;15925;51.222;5.678;2022-08-19T15:38:28;24.60;99.90
28773;DHT22;15925;51.222;5.678;2022-08-19T15:40:54;24.60;99.90
28773;DHT22;15925;51.222;5.678;2022-08-19T15:43:41;24.50;99.90
28773;DHT22;15925;51.222;5.678;2022-08-19T15:46:07;24.60;99.90
28773;DHT22;15925;51.222;5.678;2022-08-19T15:48:32;24.70;99.90
28773;DHT22;15925;51.222;5.678;2022-08-19T15:50:58;24.60;99.90
28773;DHT22;15925;51.222;5.678;2022-08-19T15:53:23;24.60;99.90